sensor_id;sensor_type;location;lat;lon;timestamp;P1;durP1;ratioP1;P2;durP2;ratioP2
3066;SDS011;1544;48.834;9.194;2023-03-14T00:01:14;0.50;;;0.40;;
3066;SDS011;1544;48.834;9.194;2023-03-14T00:03:51;0.60;;;0.60;;
3066;SDS011;1544;48.834;9.194;2023-03-14T00:06:26;0.70;;;0.50;;
3066;SDS011;1544;48.834;9.194;2023-03-14T00:09:02;2.53;;;0.50;;
3066;SDS011;1544;48.834;9.194;2023-03-14T00:11:37;0.53;;;0.50;;
3066;SDS011;1544;48.834;9.194;2023-03-14T00:14:12;0.50;;;0.50;;
3066;SDS011;1544;48.834;9.194;2023-03-14T00:16:49;1.17;;;0.60;;
3066;SDS011;1544;48.834;9.194;2023-03-14T00:19:24;0.90;;;0.50;;
3066;SDS011;1544;48.834;9.194;2023-03-14T00:21:59;0.87;;;0.60;;
3066;SDS011;1544;48.834;9.194;2023-03-14T00:24:34;0.70;;;0.63;;
3066;SDS011;1544;48.834;9.194;2023-03-14T00:27:09;0.57;;;0.50;;
3066;SDS011;1544;48.834;9.194;2023-03-14T00:29:45;1.30;;;0.50;;
3066;SDS011;1544;48.834;9.194;2023-03-14T00:32:20;0.80;;;0.50;;
3066;SDS011;1544;48.834;9.194;2023-03-14T00:34:55;0.50;;;0.50;;
3066;SDS011;1544;48.834;9.194;2023-03-14T00:37:33;0.70;;;0.60;;
3066;SDS011;1544;48.834;9.194;2023-03-14T00:40:08;0.60;;;0.60;;
3066;SDS011;1544;48.834;9.194;2023-03-14T00:42:44;1.10;;;0.60;;
3066;SDS011;1544;48.834;9.194;2023-03-14T00:45:19;1.07;;;0.60;;
3066;SDS011;1544;48.834;9.194;2023-03-14T00:47:54;0.70;;;0.70;;
3066;SDS011;1544;48.834;9.194;2023-03-14T00:50:29;0.87;;;0.70;;
3066;SDS011;1544;48.834;9.194;2023-03-14T00:53:03;0.80;;;0.60;;
3066;SDS011;1544;48.834;9.194;2023-03-14T00:55:40;0.60;;;0.60;;
3066;SDS011;1544;48.834;9.194;2023-03-14T00:58:17;0.63;;;0.60;;
3066;SDS011;1544;48.834;9.194;2023-03-14T01:00:52;1.20;;;0.67;;
3066;SDS011;1544;48.834;9.194;2023-03-14T01:03:27;1.00;;;0.50;;
3066;SDS011;1544;48.834;9.194;2023-03-14T01:06:06;1.00;;;0.60;;
3066;SDS011;1544;48.834;9.194;2023-03-14T01:08:53;0.67;;;0.67;;
3066;SDS011;1544;48.834;9.194;2023-03-14T01:11:30;0.93;;;0.60;;
3066;SDS011;1544;48.834;9.194;2023-03-14T01:14:08;0.70;;;0.60;;
3066;SDS011;1544;48.834;9.194;2023-03-14T01:16:44;0.70;;;0.67;;
3066;SDS011;1544;48.834;9.194;2023-03-14T01:19:19;0.97;;;0.50;;
3066;SDS011;1544;48.834;9.194;2023-03-14T01:21:54;0.50;;;0.50;;
3066;SDS011;1544;48.834;9.194;2023-03-14T01:24:30;0.50;;;0.50;;
3066;SDS011;1544;48.834;9.194;2023-03-14T01:27:04;0.63;;;0.63;;
3066;SDS011;1544;48.834;9.194;2023-03-14T01:29:41;2.50;;;0.60;;
3066;SDS011;1544;48.834;9.194;2023-03-14T01:32:16;0.60;;;0.53;;
3066;SDS011;1544;48.834;9.194;2023-03-14T01:34:51;0.50;;;0.50;;
3066;SDS011;1544;48.834;9.194;2023-03-14T01:37:27;1.17;;;0.60;;
3066;SDS011;1544;48.834;9.194;2023-03-14T01:40:02;0.97;;;0.50;;
3066;SDS011;1544;48.834;9.194;2023-03-14T01:42:43;0.43;;;0.40;;
3066;SDS011;1544;48.834;9.194;2023-03-14T01:48:49;0.40;;;0.40;;
3066;SDS011;1544;48.834;9.194;2023-03-14T01:51:34;0.77;;;0.57;;
3066;SDS011;1544;48.834;9.194;2023-03-14T01:54:37;1.67;;;0.50;;
3066;SDS011;1544;48.834;9.194;2023-03-14T01:57:30;1.00;;;0.50;;
3066;SDS011;1544;48.834;9.194;2023-03-14T02:00:12;1.47;;;0.50;;
3066;SDS011;1544;48.834;9.194;2023-03-14T02:02:52;0.50;;;0.50;;
3066;SDS011;1544;48.834;9.194;2023-03-14T02:05:37;0.50;;;0.50;;
3066;SDS011;1544;48.834;9.194;2023-03-14T02:08:22;1.10;;;0.60;;
3066;SDS011;1544;48.834;9.194;2023-03-14T02:11:03;0.40;;;0.40;;
3066;SDS011;1544;48.834;9.194;2023-03-14T02:13:54;0.50;;;0.50;;
3066;SDS011;1544;48.834;9.194;2023-03-14T02:16:40;0.53;;;0.50;;
3066;SDS011;1544;48.834;9.194;2023-03-14T02:22:49;1.00;;;0.50;;
3066;SDS011;1544;48.834;9.194;2023-03-14T02:28:20;0.50;;;0.50;;
3066;SDS011;1544;48.834;9.194;2023-03-14T02:31:00;2.60;;;0.60;;
3066;SDS011;1544;48.834;9.194;2023-03-14T02:33:39;0.63;;;0.50;;
3066;SDS011;1544;48.834;9.194;2023-03-14T02:36:14;0.77;;;0.50;;
3066;SDS011;1544;48.834;9.194;2023-03-14T02:38:52;0.43;;;0.40;;
3066;SDS011;1544;48.834;9.194;2023-03-14T02:41:49;0.60;;;0.50;;
3066;SDS011;1544;48.834;9.194;2023-03-14T02:44:24;0.60;;;0.50;;
3066;SDS011;1544;48.834;9.194;2023-03-14T02:46:59;0.40;;;0.40;;
3066;SDS011;1544;48.834;9.194;2023-03-14T02:49:34;1.57;;;0.50;;
3066;SDS011;1544;48.834;9.194;2023-03-14T02:52:10;0.60;;;0.40;;
3066;SDS011;1544;48.834;9.194;2023-03-14T02:54:45;0.50;;;0.40;;
3066;SDS011;1544;48.834;9.194;2023-03-14T02:57:20;0.50;;;0.43;;
3066;SDS011;1544;48.834;9.194;2023-03-14T02:59:59;0.50;;;0.50;;
3066;SDS011;1544;48.834;9.194;2023-03-14T03:02:39;0.40;;;0.40;;
3066;SDS011;1544;48.834;9.194;2023-03-14T03:05:14;0.53;;;0.47;;
3066;SDS011;1544;48.834;9.194;2023-03-14T03:07:50;0.50;;;0.50;;
3066;SDS011;1544;48.834;9.194;2023-03-14T03:10:25;1.53;;;0.50;;
3066;SDS011;1544;48.834;9.194;2023-03-14T03:13:01;1.23;;;0.57;;
3066;SDS011;1544;48.834;9.194;2023-03-14T03:15:36;2.33;;;0.50;;
3066;SDS011;1544;48.834;9.194;2023-03-14T03:18:11;0.50;;;0.50;;
3066;SDS011;1544;48.834;9.194;2023-03-14T03:20:46;1.33;;;0.73;;
3066;SDS011;1544;48.834;9.194;2023-03-14T03:23:22;0.70;;;0.50;;
3066;SDS011;1544;48.834;9.194;2023-03-14T03:25:57;1.17;;;0.50;;
3066;SDS011;1544;48.834;9.194;2023-03-14T03:28:32;0.93;;;0.50;;
3066;SDS011;1544;48.834;9.194;2023-03-14T03:31:08;0.80;;;0.50;;
3066;SDS011;1544;48.834;9.194;2023-03-14T03:33:45;1.23;;;0.50;;
3066;SDS011;1544;48.834;9.194;2023-03-14T03:36:24;1.33;;;0.57;;
3066;SDS011;1544;48.834;9.194;2023-03-14T03:39:00;2.37;;;0.73;;
3066;SDS011;1544;48.834;9.194;2023-03-14T03:41:36;0.73;;;0.60;;
3066;SDS011;1544;48.834;9.194;2023-03-14T03:44:11;3.10;;;0.57;;
3066;SDS011;1544;48.834;9.194;2023-03-14T03:46:47;3.27;;;0.50;;
3066;SDS011;1544;48.834;9.194;2023-03-14T03:49:22;1.17;;;0.43;;
3066;SDS011;1544;48.834;9.194;2023-03-14T03:51:58;3.13;;;0.77;;
3066;SDS011;1544;48.834;9.194;2023-03-14T03:54:33;0.77;;;0.60;;
3066;SDS011;1544;48.834;9.194;2023-03-14T03:57:09;0.87;;;0.80;;
3066;SDS011;1544;48.834;9.194;2023-03-14T03:59:44;1.67;;;0.60;;
3066;SDS011;1544;48.834;9.194;2023-03-14T04:02:19;1.70;;;0.50;;
3066;SDS011;1544;48.834;9.194;2023-03-14T04:04:56;1.70;;;0.60;;
3066;SDS011;1544;48.834;9.194;2023-03-14T04:07:32;0.80;;;0.60;;
3066;SDS011;1544;48.834;9.194;2023-03-14T04:10:07;1.80;;;0.57;;
3066;SDS011;1544;48.834;9.194;2023-03-14T04:12:47;0.80;;;0.67;;
3066;SDS011;1544;48.834;9.194;2023-03-14T04:15:26;0.67;;;0.60;;
3066;SDS011;1544;48.834;9.194;2023-03-14T04:18:01;0.90;;;0.67;;
3066;SDS011;1544;48.834;9.194;2023-03-14T04:20:38;2.10;;;0.60;;
3066;SDS011;1544;48.834;9.194;2023-03-14T04:23:13;1.93;;;0.60;;
3066;SDS011;1544;48.834;9.194;2023-03-14T04:25:49;3.37;;;0.70;;
3066;SDS011;1544;48.834;9.194;2023-03-14T04:28:26;3.00;;;0.70;;
3066;SDS011;1544;48.834;9.194;2023-03-14T04:31:12;0.97;;;0.60;;
3066;SDS011;1544;48.834;9.194;2023-03-14T04:33:53;2.43;;;0.60;;
3066;SDS011;1544;48.834;9.194;2023-03-14T04:36:36;1.67;;;0.73;;
3066;SDS011;1544;48.834;9.194;2023-03-14T04:39:18;1.37;;;0.60;;
3066;SDS011;1544;48.834;9.194;2023-03-14T04:42:13;0.93;;;0.70;;
3066;SDS011;1544;48.834;9.194;2023-03-14T04:44:48;1.23;;;0.60;;
3066;SDS011;1544;48.834;9.194;2023-03-14T04:47:26;1.90;;;0.67;;
3066;SDS011;1544;48.834;9.194;2023-03-14T04:50:02;2.70;;;0.67;;
3066;SDS011;1544;48.834;9.194;2023-03-14T04:52:37;1.93;;;0.70;;
3066;SDS011;1544;48.834;9.194;2023-03-14T04:55:12;1.90;;;0.70;;
3066;SDS011;1544;48.834;9.194;2023-03-14T04:57:48;1.63;;;0.60;;
3066;SDS011;1544;48.834;9.194;2023-03-14T05:00:23;3.40;;;0.73;;
3066;SDS011;1544;48.834;9.194;2023-03-14T05:03:13;1.37;;;0.87;;
3066;SDS011;1544;48.834;9.194;2023-03-14T05:05:53;2.20;;;1.10;;
3066;SDS011;1544;48.834;9.194;2023-03-14T05:08:59;4.50;;;0.80;;
3066;SDS011;1544;48.834;9.194;2023-03-14T05:11:53;3.33;;;0.80;;
3066;SDS011;1544;48.834;9.194;2023-03-14T05:14:48;1.60;;;1.03;;
3066;SDS011;1544;48.834;9.194;2023-03-14T05:17:32;1.97;;;0.73;;
3066;SDS011;1544;48.834;9.194;2023-03-14T05:20:34;3.93;;;0.80;;
3066;SDS011;1544;48.834;9.194;2023-03-14T05:23:32;2.00;;;0.80;;
3066;SDS011;1544;48.834;9.194;2023-03-14T05:26:36;1.43;;;0.80;;
3066;SDS011;1544;48.834;9.194;2023-03-14T05:29:32;2.30;;;0.80;;
3066;SDS011;1544;48.834;9.194;2023-03-14T05:32:26;1.67;;;0.70;;
3066;SDS011;1544;48.834;9.194;2023-03-14T05:35:22;2.77;;;0.80;;
3066;SDS011;1544;48.834;9.194;2023-03-14T05:38:33;1.53;;;0.87;;
3066;SDS011;1544;48.834;9.194;2023-03-14T05:41:31;2.77;;;0.70;;
3066;SDS011;1544;48.834;9.194;2023-03-14T05:44:21;1.73;;;0.80;;
3066;SDS011;1544;48.834;9.194;2023-03-14T05:47:11;2.10;;;0.60;;
3066;SDS011;1544;48.834;9.194;2023-03-14T05:49:56;1.60;;;0.57;;
3066;SDS011;1544;48.834;9.194;2023-03-14T05:52:37;1.33;;;0.60;;
3066;SDS011;1544;48.834;9.194;2023-03-14T05:55:50;2.70;;;0.70;;
3066;SDS011;1544;48.834;9.194;2023-03-14T05:58:43;1.60;;;0.63;;
3066;SDS011;1544;48.834;9.194;2023-03-14T06:01:32;2.10;;;0.63;;
3066;SDS011;1544;48.834;9.194;2023-03-14T06:04:19;2.57;;;0.93;;
3066;SDS011;1544;48.834;9.194;2023-03-14T06:07:23;1.30;;;0.60;;
3066;SDS011;1544;48.834;9.194;2023-03-14T06:10:18;0.93;;;0.57;;
3066;SDS011;1544;48.834;9.194;2023-03-14T06:13:10;1.87;;;0.63;;
3066;SDS011;1544;48.834;9.194;2023-03-14T06:15:46;1.80;;;0.63;;
3066;SDS011;1544;48.834;9.194;2023-03-14T06:18:26;5.00;;;0.60;;
3066;SDS011;1544;48.834;9.194;2023-03-14T06:21:04;1.07;;;0.80;;
3066;SDS011;1544;48.834;9.194;2023-03-14T06:23:39;1.90;;;0.70;;
3066;SDS011;1544;48.834;9.194;2023-03-14T06:26:14;2.50;;;0.77;;
3066;SDS011;1544;48.834;9.194;2023-03-14T06:28:50;4.20;;;0.60;;
3066;SDS011;1544;48.834;9.194;2023-03-14T06:31:26;0.97;;;0.50;;
3066;SDS011;1544;48.834;9.194;2023-03-14T06:34:06;0.80;;;0.50;;
3066;SDS011;1544;48.834;9.194;2023-03-14T06:36:42;1.57;;;0.80;;
3066;SDS011;1544;48.834;9.194;2023-03-14T06:39:17;1.67;;;0.70;;
3066;SDS011;1544;48.834;9.194;2023-03-14T06:41:57;0.90;;;0.50;;
3066;SDS011;1544;48.834;9.194;2023-03-14T06:44:32;1.77;;;0.50;;
3066;SDS011;1544;48.834;9.194;2023-03-14T06:47:08;1.47;;;0.60;;
3066;SDS011;1544;48.834;9.194;2023-03-14T06:49:46;1.00;;;0.50;;
3066;SDS011;1544;48.834;9.194;2023-03-14T06:52:24;1.63;;;0.50;;
3066;SDS011;1544;48.834;9.194;2023-03-14T06:55:00;1.00;;;0.50;;
3066;SDS011;1544;48.834;9.194;2023-03-14T06:57:36;1.97;;;0.53;;
3066;SDS011;1544;48.834;9.194;2023-03-14T07:00:12;5.47;;;0.60;;
3066;SDS011;1544;48.834;9.194;2023-03-14T07:02:48;1.37;;;0.60;;
3066;SDS011;1544;48.834;9.194;2023-03-14T07:05:36;0.97;;;0.50;;
3066;SDS011;1544;48.834;9.194;2023-03-14T07:08:14;1.63;;;0.70;;
3066;SDS011;1544;48.834;9.194;2023-03-14T07:10:49;0.70;;;0.40;;
3066;SDS011;1544;48.834;9.194;2023-03-14T07:13:25;1.43;;;0.50;;
3066;SDS011;1544;48.834;9.194;2023-03-14T07:16:06;1.83;;;0.50;;
3066;SDS011;1544;48.834;9.194;2023-03-14T07:18:44;0.50;;;0.43;;
3066;SDS011;1544;48.834;9.194;2023-03-14T07:21:19;0.60;;;0.60;;
3066;SDS011;1544;48.834;9.194;2023-03-14T07:23:54;0.57;;;0.50;;
3066;SDS011;1544;48.834;9.194;2023-03-14T07:26:29;1.60;;;0.50;;
3066;SDS011;1544;48.834;9.194;2023-03-14T07:29:04;1.07;;;0.50;;
3066;SDS011;1544;48.834;9.194;2023-03-14T07:31:40;0.93;;;0.40;;
3066;SDS011;1544;48.834;9.194;2023-03-14T07:34:15;0.80;;;0.43;;
3066;SDS011;1544;48.834;9.194;2023-03-14T07:36:53;1.73;;;0.50;;
3066;SDS011;1544;48.834;9.194;2023-03-14T07:39:29;1.53;;;0.50;;
3066;SDS011;1544;48.834;9.194;2023-03-14T07:42:08;0.83;;;0.60;;
3066;SDS011;1544;48.834;9.194;2023-03-14T07:44:59;0.50;;;0.47;;
3066;SDS011;1544;48.834;9.194;2023-03-14T07:47:35;0.40;;;0.40;;
3066;SDS011;1544;48.834;9.194;2023-03-14T07:50:10;0.90;;;0.50;;
3066;SDS011;1544;48.834;9.194;2023-03-14T07:52:45;1.30;;;0.40;;
3066;SDS011;1544;48.834;9.194;2023-03-14T07:55:20;0.40;;;0.40;;
3066;SDS011;1544;48.834;9.194;2023-03-14T07:57:56;2.87;;;0.50;;
3066;SDS011;1544;48.834;9.194;2023-03-14T08:00:31;0.57;;;0.40;;
3066;SDS011;1544;48.834;9.194;2023-03-14T08:03:07;0.40;;;0.40;;
3066;SDS011;1544;48.834;9.194;2023-03-14T08:05:42;0.70;;;0.40;;
3066;SDS011;1544;48.834;9.194;2023-03-14T08:08:19;0.60;;;0.50;;
3066;SDS011;1544;48.834;9.194;2023-03-14T08:10:54;0.60;;;0.40;;
3066;SDS011;1544;48.834;9.194;2023-03-14T08:13:29;1.30;;;0.40;;
3066;SDS011;1544;48.834;9.194;2023-03-14T08:16:04;1.23;;;0.30;;
3066;SDS011;1544;48.834;9.194;2023-03-14T08:18:40;0.87;;;0.50;;
3066;SDS011;1544;48.834;9.194;2023-03-14T08:21:15;1.00;;;0.37;;
3066;SDS011;1544;48.834;9.194;2023-03-14T08:23:50;0.80;;;0.40;;
3066;SDS011;1544;48.834;9.194;2023-03-14T08:26:25;0.50;;;0.40;;
3066;SDS011;1544;48.834;9.194;2023-03-14T08:29:00;0.40;;;0.40;;
3066;SDS011;1544;48.834;9.194;2023-03-14T08:31:35;0.47;;;0.40;;
3066;SDS011;1544;48.834;9.194;2023-03-14T08:34:10;0.83;;;0.40;;
3066;SDS011;1544;48.834;9.194;2023-03-14T08:36:45;1.13;;;0.50;;
3066;SDS011;1544;48.834;9.194;2023-03-14T08:39:20;0.60;;;0.40;;
3066;SDS011;1544;48.834;9.194;2023-03-14T08:41:55;1.53;;;0.50;;
3066;SDS011;1544;48.834;9.194;2023-03-14T08:44:30;0.93;;;0.40;;
3066;SDS011;1544;48.834;9.194;2023-03-14T08:47:05;0.60;;;0.40;;
3066;SDS011;1544;48.834;9.194;2023-03-14T08:49:40;0.60;;;0.40;;
3066;SDS011;1544;48.834;9.194;2023-03-14T08:52:16;1.33;;;0.40;;
3066;SDS011;1544;48.834;9.194;2023-03-14T08:54:50;0.40;;;0.40;;
3066;SDS011;1544;48.834;9.194;2023-03-14T08:57:26;0.43;;;0.40;;
3066;SDS011;1544;48.834;9.194;2023-03-14T09:00:02;0.43;;;0.37;;
3066;SDS011;1544;48.834;9.194;2023-03-14T09:02:44;0.40;;;0.30;;
3066;SDS011;1544;48.834;9.194;2023-03-14T09:05:20;1.37;;;0.50;;
3066;SDS011;1544;48.834;9.194;2023-03-14T09:07:56;0.57;;;0.57;;
3066;SDS011;1544;48.834;9.194;2023-03-14T09:10:31;1.13;;;0.33;;
3066;SDS011;1544;48.834;9.194;2023-03-14T09:13:06;0.50;;;0.40;;
3066;SDS011;1544;48.834;9.194;2023-03-14T09:15:40;0.60;;;0.30;;
3066;SDS011;1544;48.834;9.194;2023-03-14T09:18:16;0.43;;;0.40;;
3066;SDS011;1544;48.834;9.194;2023-03-14T09:20:51;0.50;;;0.30;;
3066;SDS011;1544;48.834;9.194;2023-03-14T09:23:27;0.47;;;0.40;;
3066;SDS011;1544;48.834;9.194;2023-03-14T09:26:02;0.30;;;0.30;;
3066;SDS011;1544;48.834;9.194;2023-03-14T09:28:37;1.00;;;0.30;;
3066;SDS011;1544;48.834;9.194;2023-03-14T09:31:12;0.40;;;0.30;;
3066;SDS011;1544;48.834;9.194;2023-03-14T09:33:47;0.80;;;0.30;;
3066;SDS011;1544;48.834;9.194;2023-03-14T09:36:22;0.50;;;0.40;;
3066;SDS011;1544;48.834;9.194;2023-03-14T09:38:57;0.50;;;0.40;;
3066;SDS011;1544;48.834;9.194;2023-03-14T09:41:33;0.40;;;0.30;;
3066;SDS011;1544;48.834;9.194;2023-03-14T09:44:16;1.13;;;0.40;;
3066;SDS011;1544;48.834;9.194;2023-03-14T09:47:03;0.37;;;0.30;;
3066;SDS011;1544;48.834;9.194;2023-03-14T09:49:41;0.37;;;0.30;;
3066;SDS011;1544;48.834;9.194;2023-03-14T09:55:11;1.97;;;0.77;;
3066;SDS011;1544;48.834;9.194;2023-03-14T09:57:53;0.40;;;0.40;;
3066;SDS011;1544;48.834;9.194;2023-03-14T10:00:33;0.30;;;0.30;;
3066;SDS011;1544;48.834;9.194;2023-03-14T10:05:47;1.13;;;0.40;;
3066;SDS011;1544;48.834;9.194;2023-03-14T10:08:22;0.80;;;0.40;;
3066;SDS011;1544;48.834;9.194;2023-03-14T10:10:57;0.30;;;0.30;;
3066;SDS011;1544;48.834;9.194;2023-03-14T10:13:33;0.47;;;0.30;;
3066;SDS011;1544;48.834;9.194;2023-03-14T10:16:08;0.30;;;0.30;;
3066;SDS011;1544;48.834;9.194;2023-03-14T10:18:45;0.60;;;0.30;;
3066;SDS011;1544;48.834;9.194;2023-03-14T10:21:21;0.83;;;0.40;;
3066;SDS011;1544;48.834;9.194;2023-03-14T10:29:53;0.57;;;0.40;;
3066;SDS011;1544;48.834;9.194;2023-03-14T10:32:34;0.40;;;0.30;;
3066;SDS011;1544;48.834;9.194;2023-03-14T10:40:33;0.40;;;0.30;;
3066;SDS011;1544;48.834;9.194;2023-03-14T10:43:14;0.80;;;0.30;;
3066;SDS011;1544;48.834;9.194;2023-03-14T10:45:57;0.30;;;0.30;;
3066;SDS011;1544;48.834;9.194;2023-03-14T10:48:38;0.60;;;0.60;;
3066;SDS011;1544;48.834;9.194;2023-03-14T10:53:58;0.40;;;0.40;;
3066;SDS011;1544;48.834;9.194;2023-03-14T10:56:37;0.47;;;0.40;;
3066;SDS011;1544;48.834;9.194;2023-03-14T10:59:13;1.30;;;0.30;;
3066;SDS011;1544;48.834;9.194;2023-03-14T11:08:26;0.30;;;0.30;;
3066;SDS011;1544;48.834;9.194;2023-03-14T11:11:39;1.60;;;0.30;;
3066;SDS011;1544;48.834;9.194;2023-03-14T11:14:33;0.30;;;0.30;;
3066;SDS011;1544;48.834;9.194;2023-03-14T11:17:16;0.57;;;0.30;;
3066;SDS011;1544;48.834;9.194;2023-03-14T11:23:08;0.37;;;0.30;;
3066;SDS011;1544;48.834;9.194;2023-03-14T11:26:14;0.50;;;0.30;;
3066;SDS011;1544;48.834;9.194;2023-03-14T11:32:42;0.63;;;0.30;;
3066;SDS011;1544;48.834;9.194;2023-03-14T11:35:33;0.30;;;0.30;;
3066;SDS011;1544;48.834;9.194;2023-03-14T11:38:32;0.40;;;0.40;;
3066;SDS011;1544;48.834;9.194;2023-03-14T11:41:36;0.40;;;0.30;;
3066;SDS011;1544;48.834;9.194;2023-03-14T11:44:32;0.40;;;0.40;;
3066;SDS011;1544;48.834;9.194;2023-03-14T11:47:29;0.57;;;0.40;;
3066;SDS011;1544;48.834;9.194;2023-03-14T11:50:17;0.30;;;0.30;;
3066;SDS011;1544;48.834;9.194;2023-03-14T11:55:49;0.33;;;0.30;;
3066;SDS011;1544;48.834;9.194;2023-03-14T11:58:26;0.30;;;0.30;;
3066;SDS011;1544;48.834;9.194;2023-03-14T12:01:08;0.33;;;0.30;;
3066;SDS011;1544;48.834;9.194;2023-03-14T12:06:27;0.60;;;0.30;;
3066;SDS011;1544;48.834;9.194;2023-03-14T12:09:25;0.30;;;0.30;;
3066;SDS011;1544;48.834;9.194;2023-03-14T12:12:01;0.33;;;0.30;;
3066;SDS011;1544;48.834;9.194;2023-03-14T12:14:43;0.60;;;0.30;;
3066;SDS011;1544;48.834;9.194;2023-03-14T12:17:41;0.40;;;0.30;;
3066;SDS011;1544;48.834;9.194;2023-03-14T12:20:18;0.40;;;0.40;;
3066;SDS011;1544;48.834;9.194;2023-03-14T12:23:01;0.30;;;0.30;;
3066;SDS011;1544;48.834;9.194;2023-03-14T12:25:38;0.30;;;0.30;;
3066;SDS011;1544;48.834;9.194;2023-03-14T12:28:20;0.30;;;0.30;;
3066;SDS011;1544;48.834;9.194;2023-03-14T12:42:35;0.60;;;0.40;;
3066;SDS011;1544;48.834;9.194;2023-03-14T12:45:36;0.70;;;0.50;;
3066;SDS011;1544;48.834;9.194;2023-03-14T12:48:23;0.47;;;0.47;;
3066;SDS011;1544;48.834;9.194;2023-03-14T12:51:03;0.60;;;0.60;;
3066;SDS011;1544;48.834;9.194;2023-03-14T12:53:53;1.20;;;0.63;;
3066;SDS011;1544;48.834;9.194;2023-03-14T13:02:37;2.80;;;0.53;;
3066;SDS011;1544;48.834;9.194;2023-03-14T13:10:45;0.80;;;0.50;;
3066;SDS011;1544;48.834;9.194;2023-03-14T13:13:24;2.03;;;0.60;;
3066;SDS011;1544;48.834;9.194;2023-03-14T13:16:01;0.80;;;0.50;;
3066;SDS011;1544;48.834;9.194;2023-03-14T13:18:41;1.10;;;0.50;;
3066;SDS011;1544;48.834;9.194;2023-03-14T13:21:37;1.10;;;0.70;;
3066;SDS011;1544;48.834;9.194;2023-03-14T13:24:23;1.23;;;0.40;;
3066;SDS011;1544;48.834;9.194;2023-03-14T13:27:01;0.90;;;0.50;;
3066;SDS011;1544;48.834;9.194;2023-03-14T13:29:36;0.93;;;0.40;;
3066;SDS011;1544;48.834;9.194;2023-03-14T13:32:19;0.43;;;0.40;;
3066;SDS011;1544;48.834;9.194;2023-03-14T13:34:57;2.60;;;0.50;;
3066;SDS011;1544;48.834;9.194;2023-03-14T13:37:38;0.60;;;0.40;;
3066;SDS011;1544;48.834;9.194;2023-03-14T13:40:19;0.77;;;0.40;;
3066;SDS011;1544;48.834;9.194;2023-03-14T13:46:19;1.07;;;0.43;;
3066;SDS011;1544;48.834;9.194;2023-03-14T13:48:58;0.70;;;0.50;;
3066;SDS011;1544;48.834;9.194;2023-03-14T13:51:38;1.90;;;0.60;;
3066;SDS011;1544;48.834;9.194;2023-03-14T13:54:15;1.80;;;0.60;;
3066;SDS011;1544;48.834;9.194;2023-03-14T13:57:02;0.40;;;0.40;;
3066;SDS011;1544;48.834;9.194;2023-03-14T13:59:39;0.60;;;0.60;;
3066;SDS011;1544;48.834;9.194;2023-03-14T14:02:14;1.13;;;0.57;;
3066;SDS011;1544;48.834;9.194;2023-03-14T14:04:51;1.77;;;0.50;;
3066;SDS011;1544;48.834;9.194;2023-03-14T14:07:27;1.53;;;0.40;;
3066;SDS011;1544;48.834;9.194;2023-03-14T14:10:02;0.53;;;0.40;;
3066;SDS011;1544;48.834;9.194;2023-03-14T14:12:50;4.33;;;0.50;;
3066;SDS011;1544;48.834;9.194;2023-03-14T14:15:40;2.93;;;0.50;;
3066;SDS011;1544;48.834;9.194;2023-03-14T14:18:19;3.23;;;0.47;;
3066;SDS011;1544;48.834;9.194;2023-03-14T14:21:00;2.10;;;0.40;;
3066;SDS011;1544;48.834;9.194;2023-03-14T14:23:37;1.07;;;0.97;;
3066;SDS011;1544;48.834;9.194;2023-03-14T14:26:16;1.17;;;0.50;;
3066;SDS011;1544;48.834;9.194;2023-03-14T14:29:04;1.43;;;0.50;;
3066;SDS011;1544;48.834;9.194;2023-03-14T14:31:41;0.60;;;0.40;;
3066;SDS011;1544;48.834;9.194;2023-03-14T14:34:19;0.50;;;0.43;;
3066;SDS011;1544;48.834;9.194;2023-03-14T14:36:54;0.50;;;0.50;;
3066;SDS011;1544;48.834;9.194;2023-03-14T14:39:29;1.30;;;0.50;;
3066;SDS011;1544;48.834;9.194;2023-03-14T14:42:12;0.80;;;0.40;;
3066;SDS011;1544;48.834;9.194;2023-03-14T14:44:51;1.13;;;0.50;;
3066;SDS011;1544;48.834;9.194;2023-03-14T14:47:28;1.47;;;0.50;;
3066;SDS011;1544;48.834;9.194;2023-03-14T14:50:04;1.73;;;0.40;;
3066;SDS011;1544;48.834;9.194;2023-03-14T14:52:58;1.10;;;0.60;;
3066;SDS011;1544;48.834;9.194;2023-03-14T14:55:40;0.90;;;0.40;;
3066;SDS011;1544;48.834;9.194;2023-03-14T14:58:30;3.07;;;0.70;;
3066;SDS011;1544;48.834;9.194;2023-03-14T15:03:58;0.70;;;0.40;;
3066;SDS011;1544;48.834;9.194;2023-03-14T15:06:33;2.23;;;0.60;;
3066;SDS011;1544;48.834;9.194;2023-03-14T15:09:09;0.70;;;0.50;;
3066;SDS011;1544;48.834;9.194;2023-03-14T15:11:46;0.70;;;0.50;;
3066;SDS011;1544;48.834;9.194;2023-03-14T15:14:22;2.73;;;0.70;;
3066;SDS011;1544;48.834;9.194;2023-03-14T15:16:57;1.03;;;0.60;;
3066;SDS011;1544;48.834;9.194;2023-03-14T15:19:32;2.67;;;0.60;;
3066;SDS011;1544;48.834;9.194;2023-03-14T15:22:09;1.70;;;0.50;;
3066;SDS011;1544;48.834;9.194;2023-03-14T15:24:48;1.30;;;0.70;;
3066;SDS011;1544;48.834;9.194;2023-03-14T15:27:23;4.20;;;0.90;;
3066;SDS011;1544;48.834;9.194;2023-03-14T15:30:06;1.90;;;0.80;;
3066;SDS011;1544;48.834;9.194;2023-03-14T15:32:46;2.83;;;0.77;;
3066;SDS011;1544;48.834;9.194;2023-03-14T15:35:21;1.27;;;0.70;;
3066;SDS011;1544;48.834;9.194;2023-03-14T15:37:56;1.43;;;0.63;;
3066;SDS011;1544;48.834;9.194;2023-03-14T15:40:31;0.67;;;0.50;;
3066;SDS011;1544;48.834;9.194;2023-03-14T15:43:06;1.00;;;0.60;;
3066;SDS011;1544;48.834;9.194;2023-03-14T15:45:42;1.83;;;0.53;;
3066;SDS011;1544;48.834;9.194;2023-03-14T15:48:18;2.07;;;0.60;;
3066;SDS011;1544;48.834;9.194;2023-03-14T15:50:55;1.53;;;0.60;;
3066;SDS011;1544;48.834;9.194;2023-03-14T15:53:30;1.20;;;0.63;;
3066;SDS011;1544;48.834;9.194;2023-03-14T15:56:05;1.30;;;0.43;;
3066;SDS011;1544;48.834;9.194;2023-03-14T15:58:44;2.47;;;0.70;;
3066;SDS011;1544;48.834;9.194;2023-03-14T16:01:23;1.97;;;0.60;;
3066;SDS011;1544;48.834;9.194;2023-03-14T16:03:58;2.10;;;0.63;;
3066;SDS011;1544;48.834;9.194;2023-03-14T16:06:33;1.07;;;0.70;;
3066;SDS011;1544;48.834;9.194;2023-03-14T16:09:11;0.90;;;0.80;;
3066;SDS011;1544;48.834;9.194;2023-03-14T16:11:46;1.30;;;0.60;;
3066;SDS011;1544;48.834;9.194;2023-03-14T16:14:22;1.00;;;0.50;;
3066;SDS011;1544;48.834;9.194;2023-03-14T16:16:57;2.53;;;0.60;;
3066;SDS011;1544;48.834;9.194;2023-03-14T16:19:33;1.70;;;0.60;;
3066;SDS011;1544;48.834;9.194;2023-03-14T16:22:08;0.80;;;0.60;;
3066;SDS011;1544;48.834;9.194;2023-03-14T16:24:43;2.20;;;0.50;;
3066;SDS011;1544;48.834;9.194;2023-03-14T16:27:18;0.90;;;0.60;;
3066;SDS011;1544;48.834;9.194;2023-03-14T16:29:53;2.73;;;0.70;;
3066;SDS011;1544;48.834;9.194;2023-03-14T16:32:28;1.37;;;0.77;;
3066;SDS011;1544;48.834;9.194;2023-03-14T16:35:05;1.33;;;0.70;;
3066;SDS011;1544;48.834;9.194;2023-03-14T16:37:40;1.27;;;0.70;;
3066;SDS011;1544;48.834;9.194;2023-03-14T16:40:15;1.10;;;0.70;;
3066;SDS011;1544;48.834;9.194;2023-03-14T16:42:50;0.40;;;0.40;;
3066;SDS011;1544;48.834;9.194;2023-03-14T16:45:48;0.80;;;0.60;;
3066;SDS011;1544;48.834;9.194;2023-03-14T16:48:24;3.20;;;0.70;;
3066;SDS011;1544;48.834;9.194;2023-03-14T16:51:00;1.60;;;0.70;;
3066;SDS011;1544;48.834;9.194;2023-03-14T16:53:36;2.20;;;0.70;;
3066;SDS011;1544;48.834;9.194;2023-03-14T16:56:11;1.03;;;0.70;;
3066;SDS011;1544;48.834;9.194;2023-03-14T16:58:47;4.80;;;0.70;;
3066;SDS011;1544;48.834;9.194;2023-03-14T17:01:23;1.00;;;0.70;;
3066;SDS011;1544;48.834;9.194;2023-03-14T17:03:58;0.70;;;0.60;;
3066;SDS011;1544;48.834;9.194;2023-03-14T17:06:33;2.33;;;1.10;;
3066;SDS011;1544;48.834;9.194;2023-03-14T17:09:09;1.00;;;0.70;;
3066;SDS011;1544;48.834;9.194;2023-03-14T17:11:45;0.83;;;0.80;;
3066;SDS011;1544;48.834;9.194;2023-03-14T17:14:20;1.57;;;0.70;;
3066;SDS011;1544;48.834;9.194;2023-03-14T17:16:55;2.30;;;0.60;;
3066;SDS011;1544;48.834;9.194;2023-03-14T17:19:30;1.40;;;0.60;;
3066;SDS011;1544;48.834;9.194;2023-03-14T17:22:07;2.00;;;1.03;;
3066;SDS011;1544;48.834;9.194;2023-03-14T17:24:56;0.70;;;0.60;;
3066;SDS011;1544;48.834;9.194;2023-03-14T17:27:31;4.00;;;0.80;;
3066;SDS011;1544;48.834;9.194;2023-03-14T17:30:09;2.10;;;0.80;;
3066;SDS011;1544;48.834;9.194;2023-03-14T17:32:45;1.00;;;0.80;;
3066;SDS011;1544;48.834;9.194;2023-03-14T17:35:19;3.33;;;0.87;;
3066;SDS011;1544;48.834;9.194;2023-03-14T17:37:54;5.80;;;1.00;;
3066;SDS011;1544;48.834;9.194;2023-03-14T17:40:30;1.27;;;0.70;;
3066;SDS011;1544;48.834;9.194;2023-03-14T17:43:06;2.30;;;0.90;;
3066;SDS011;1544;48.834;9.194;2023-03-14T17:45:42;1.53;;;0.80;;
3066;SDS011;1544;48.834;9.194;2023-03-14T17:48:17;3.73;;;0.90;;